Lanagan, MO (64847)

12:20 AM CST on December 08, 2016 (GMT -0600)
Brush Creek | | Change Station

Elev 1056 ft 36.51 °N, 94.34 °W | Updated 36 seconds ago

Mostly Cloudy
Mostly Cloudy
28.4 °F
Feels Like 23 °F
N
4.9
Wind Variable Wind from NNW
Gusts 7.4 mph

Today
High -- | Low -- °F
--% Chance of Precip.
Yesterday
High -- | Low -- °F
Precip. -- in
Pressure 30.52 in
Visibility 10.0 miles
Clouds Scattered Clouds 2000 ft
Windchill 23 °F
Dew Point 17 °F
Humidity 63%
Rainfall 0.00 in
Snow Depth Not available.
7:17 AM 5:01 PM
First Quarter, 60% visible
METAR KGMJ 080615Z AUTO 36007KT 10SM SCT020 M02/M05 A3052 RMK AO2
Pressure 30.52 in
Visibility 10.0 miles
Clouds Scattered Clouds 2000 ft
Windchill 23 °F
Dew Point 17 °F
Humidity 63%
Rainfall 0.00 in
Snow Depth Not available.
7:17 AM 5:01 PM
First Quarter, 60% visible
METAR KGMJ 080615Z AUTO 36007KT 10SM SCT020 M02/M05 A3052 RMK AO2

10-Day Weather Forecast

Almanac

Astronomy

Dec. 08, 2016 Rise Set
Actual Time
Civil Twilight
Nautical Twilight
Astronomical Twilight
Moon
Length of Visible Light
Length of Day
Tomorrow will be .
, % of the Moon is Illuminated

Today's Extremes

State Highs State Lows

Community

WunderPhotos

Upload Photos

1,956,259 photos uploaded!

WunderBlog® & News

Nearby

Air Quality

  Air Quality AQ Index Pollutant
Not available.

Snow Depth

Station Depth Elevation

Earthquake Activity

City Distance Mag. Time & Date
Minimum magnitude displayed is 2.5.

Coastal Water Temperatures

Place Temperature

Stations

Nearby Weather Stations

Station Location Temp. Windchill Dew Point Humidity Wind Precip. Elev Updated Type
                   

Watches & Warnings

There are currently no watches in effect.